sensor_id;sensor_type;location;lat;lon;timestamp;temperature;humidity
24144;DHT22;12307;50.828;6.080;2023-06-14T00:02:16;24.90;54.90
24144;DHT22;12307;50.828;6.080;2023-06-14T00:04:42;24.90;54.90
24144;DHT22;12307;50.828;6.080;2023-06-14T00:07:08;24.90;55.00
24144;DHT22;12307;50.828;6.080;2023-06-14T00:09:35;24.80;55.00
24144;DHT22;12307;50.828;6.080;2023-06-14T00:12:03;24.90;55.10
24144;DHT22;12307;50.828;6.080;2023-06-14T00:14:28;24.80;55.10
24144;DHT22;12307;50.828;6.080;2023-06-14T00:16:54;24.80;55.20
24144;DHT22;12307;50.828;6.080;2023-06-14T00:19:26;24.80;55.20
24144;DHT22;12307;50.828;6.080;2023-06-14T00:21:52;24.80;55.30
24144;DHT22;12307;50.828;6.080;2023-06-14T00:24:18;24.80;55.30
24144;DHT22;12307;50.828;6.080;2023-06-14T00:26:44;24.70;55.30
24144;DHT22;12307;50.828;6.080;2023-06-14T00:29:09;24.70;55.30
24144;DHT22;12307;50.828;6.080;2023-06-14T00:31:35;24.70;55.30
24144;DHT22;12307;50.828;6.080;2023-06-14T00:34:01;24.70;55.40
24144;DHT22;12307;50.828;6.080;2023-06-14T00:36:28;24.70;55.40
24144;DHT22;12307;50.828;6.080;2023-06-14T00:38:53;24.70;55.40
24144;DHT22;12307;50.828;6.080;2023-06-14T00:41:19;24.70;55.50
24144;DHT22;12307;50.828;6.080;2023-06-14T00:43:45;24.70;55.50
24144;DHT22;12307;50.828;6.080;2023-06-14T00:46:10;24.60;55.60
24144;DHT22;12307;50.828;6.080;2023-06-14T00:48:37;24.70;55.70
24144;DHT22;12307;50.828;6.080;2023-06-14T00:51:04;24.60;55.60
24144;DHT22;12307;50.828;6.080;2023-06-14T00:53:31;24.60;55.70
24144;DHT22;12307;50.828;6.080;2023-06-14T00:56:00;24.60;55.70
24144;DHT22;12307;50.828;6.080;2023-06-14T00:58:26;24.60;55.70
24144;DHT22;12307;50.828;6.080;2023-06-14T01:00:53;24.50;55.70
24144;DHT22;12307;50.828;6.080;2023-06-14T01:03:19;24.50;55.70
24144;DHT22;12307;50.828;6.080;2023-06-14T01:05:47;24.50;55.80
24144;DHT22;12307;50.828;6.080;2023-06-14T01:08:23;24.50;55.80
24144;DHT22;12307;50.828;6.080;2023-06-14T01:10:59;24.50;55.80
24144;DHT22;12307;50.828;6.080;2023-06-14T01:13:32;24.50;55.90
24144;DHT22;12307;50.828;6.080;2023-06-14T01:15:59;24.50;56.00
24144;DHT22;12307;50.828;6.080;2023-06-14T01:18:25;24.50;56.00
24144;DHT22;12307;50.828;6.080;2023-06-14T01:20:53;24.50;56.00
24144;DHT22;12307;50.828;6.080;2023-06-14T01:23:22;24.40;56.00
24144;DHT22;12307;50.828;6.080;2023-06-14T01:25:49;24.50;56.00
24144;DHT22;12307;50.828;6.080;2023-06-14T01:28:19;24.40;56.00
24144;DHT22;12307;50.828;6.080;2023-06-14T01:30:48;24.40;56.10
24144;DHT22;12307;50.828;6.080;2023-06-14T01:33:15;24.40;56.10
24144;DHT22;12307;50.828;6.080;2023-06-14T01:35:43;24.40;56.10
24144;DHT22;12307;50.828;6.080;2023-06-14T01:38:09;24.40;56.20
24144;DHT22;12307;50.828;6.080;2023-06-14T01:40:37;24.30;56.20
24144;DHT22;12307;50.828;6.080;2023-06-14T01:43:04;24.30;56.20
24144;DHT22;12307;50.828;6.080;2023-06-14T01:45:31;24.30;56.20
24144;DHT22;12307;50.828;6.080;2023-06-14T01:47:57;24.30;56.30
24144;DHT22;12307;50.828;6.080;2023-06-14T01:50:22;24.30;56.30
24144;DHT22;12307;50.828;6.080;2023-06-14T01:52:48;24.30;56.30
24144;DHT22;12307;50.828;6.080;2023-06-14T01:55:14;24.30;56.30
24144;DHT22;12307;50.828;6.080;2023-06-14T01:57:44;24.30;56.30
24144;DHT22;12307;50.828;6.080;2023-06-14T02:00:11;24.30;56.40
24144;DHT22;12307;50.828;6.080;2023-06-14T02:02:38;24.30;56.40
24144;DHT22;12307;50.828;6.080;2023-06-14T02:05:04;24.20;56.40
24144;DHT22;12307;50.828;6.080;2023-06-14T02:07:30;24.30;56.40
24144;DHT22;12307;50.828;6.080;2023-06-14T02:09:55;24.20;56.40
24144;DHT22;12307;50.828;6.080;2023-06-14T02:12:21;24.20;56.50
24144;DHT22;12307;50.828;6.080;2023-06-14T02:14:48;24.20;56.50
24144;DHT22;12307;50.828;6.080;2023-06-14T02:17:14;24.20;56.50
24144;DHT22;12307;50.828;6.080;2023-06-14T02:19:40;24.20;56.60
24144;DHT22;12307;50.828;6.080;2023-06-14T02:22:06;24.20;56.60
24144;DHT22;12307;50.828;6.080;2023-06-14T02:24:32;24.20;56.60
24144;DHT22;12307;50.828;6.080;2023-06-14T02:26:59;24.20;56.60
24144;DHT22;12307;50.828;6.080;2023-06-14T02:29:25;24.10;56.60
24144;DHT22;12307;50.828;6.080;2023-06-14T02:31:52;24.20;56.70
24144;DHT22;12307;50.828;6.080;2023-06-14T02:34:18;24.20;56.70
24144;DHT22;12307;50.828;6.080;2023-06-14T02:36:45;24.10;56.70
24144;DHT22;12307;50.828;6.080;2023-06-14T02:39:11;24.10;56.70
24144;DHT22;12307;50.828;6.080;2023-06-14T02:41:37;24.10;56.70
24144;DHT22;12307;50.828;6.080;2023-06-14T02:44:03;24.10;56.70
24144;DHT22;12307;50.828;6.080;2023-06-14T02:46:29;24.10;56.80
24144;DHT22;12307;50.828;6.080;2023-06-14T02:48:56;24.10;56.80
24144;DHT22;12307;50.828;6.080;2023-06-14T02:51:22;24.10;56.80
24144;DHT22;12307;50.828;6.080;2023-06-14T02:53:48;24.10;56.80
24144;DHT22;12307;50.828;6.080;2023-06-14T02:56:13;24.00;56.80
24144;DHT22;12307;50.828;6.080;2023-06-14T02:58:39;24.00;56.80
24144;DHT22;12307;50.828;6.080;2023-06-14T03:01:06;24.10;56.90
24144;DHT22;12307;50.828;6.080;2023-06-14T03:03:33;24.00;56.90
24144;DHT22;12307;50.828;6.080;2023-06-14T03:06:00;24.00;56.90
24144;DHT22;12307;50.828;6.080;2023-06-14T03:08:30;24.00;56.90
24144;DHT22;12307;50.828;6.080;2023-06-14T03:10:57;24.00;57.00
24144;DHT22;12307;50.828;6.080;2023-06-14T03:13:23;24.00;57.00
24144;DHT22;12307;50.828;6.080;2023-06-14T03:15:49;24.00;57.00
24144;DHT22;12307;50.828;6.080;2023-06-14T03:18:16;24.00;57.00
24144;DHT22;12307;50.828;6.080;2023-06-14T03:20:42;23.90;57.00
24144;DHT22;12307;50.828;6.080;2023-06-14T03:23:12;24.00;57.10
24144;DHT22;12307;50.828;6.080;2023-06-14T03:25:37;23.90;57.00
24144;DHT22;12307;50.828;6.080;2023-06-14T03:28:04;23.90;57.10
24144;DHT22;12307;50.828;6.080;2023-06-14T03:30:30;23.90;57.10
24144;DHT22;12307;50.828;6.080;2023-06-14T03:32:56;23.90;57.10
24144;DHT22;12307;50.828;6.080;2023-06-14T03:35:22;23.90;57.10
24144;DHT22;12307;50.828;6.080;2023-06-14T03:37:48;23.90;57.10
24144;DHT22;12307;50.828;6.080;2023-06-14T03:40:18;23.90;57.20
24144;DHT22;12307;50.828;6.080;2023-06-14T03:42:44;23.90;57.20
24144;DHT22;12307;50.828;6.080;2023-06-14T03:45:09;23.90;57.20
24144;DHT22;12307;50.828;6.080;2023-06-14T03:47:35;23.90;57.30
24144;DHT22;12307;50.828;6.080;2023-06-14T03:50:01;23.90;57.30
24144;DHT22;12307;50.828;6.080;2023-06-14T03:52:28;23.90;57.30
24144;DHT22;12307;50.828;6.080;2023-06-14T03:54:53;23.90;57.30
24144;DHT22;12307;50.828;6.080;2023-06-14T03:57:21;23.80;57.20
24144;DHT22;12307;50.828;6.080;2023-06-14T03:59:47;23.90;57.30
24144;DHT22;12307;50.828;6.080;2023-06-14T04:02:13;23.80;57.20
24144;DHT22;12307;50.828;6.080;2023-06-14T04:04:41;23.80;57.20
24144;DHT22;12307;50.828;6.080;2023-06-14T04:07:09;23.80;57.20
24144;DHT22;12307;50.828;6.080;2023-06-14T04:09:35;23.80;57.30
24144;DHT22;12307;50.828;6.080;2023-06-14T04:12:00;23.80;57.30
24144;DHT22;12307;50.828;6.080;2023-06-14T04:14:27;23.80;57.30
24144;DHT22;12307;50.828;6.080;2023-06-14T04:16:53;23.80;57.40
24144;DHT22;12307;50.828;6.080;2023-06-14T04:19:19;23.80;57.40
24144;DHT22;12307;50.828;6.080;2023-06-14T04:21:45;23.80;57.40
24144;DHT22;12307;50.828;6.080;2023-06-14T04:24:11;23.80;57.40
24144;DHT22;12307;50.828;6.080;2023-06-14T04:26:39;23.80;57.40
24144;DHT22;12307;50.828;6.080;2023-06-14T04:29:05;23.70;57.30
24144;DHT22;12307;50.828;6.080;2023-06-14T04:31:32;23.70;57.40
24144;DHT22;12307;50.828;6.080;2023-06-14T04:34:03;23.80;57.50
24144;DHT22;12307;50.828;6.080;2023-06-14T04:36:31;23.70;57.30
24144;DHT22;12307;50.828;6.080;2023-06-14T04:38:57;23.80;57.50
24144;DHT22;12307;50.828;6.080;2023-06-14T04:41:24;23.80;57.50
24144;DHT22;12307;50.828;6.080;2023-06-14T04:43:54;23.80;57.50
24144;DHT22;12307;50.828;6.080;2023-06-14T04:46:19;23.80;57.50
24144;DHT22;12307;50.828;6.080;2023-06-14T04:48:47;23.80;57.50
24144;DHT22;12307;50.828;6.080;2023-06-14T04:51:13;23.80;57.50
24144;DHT22;12307;50.828;6.080;2023-06-14T04:53:38;23.70;57.40
24144;DHT22;12307;50.828;6.080;2023-06-14T04:56:04;23.80;57.50
24144;DHT22;12307;50.828;6.080;2023-06-14T04:58:30;23.70;57.40
24144;DHT22;12307;50.828;6.080;2023-06-14T05:00:56;23.80;57.50
24144;DHT22;12307;50.828;6.080;2023-06-14T05:03:22;23.70;57.50
24144;DHT22;12307;50.828;6.080;2023-06-14T05:05:49;23.80;57.50
24144;DHT22;12307;50.828;6.080;2023-06-14T05:08:15;23.80;57.50
24144;DHT22;12307;50.828;6.080;2023-06-14T05:10:41;23.70;57.40
24144;DHT22;12307;50.828;6.080;2023-06-14T05:13:07;23.80;57.50
24144;DHT22;12307;50.828;6.080;2023-06-14T05:15:33;23.70;57.40
24144;DHT22;12307;50.828;6.080;2023-06-14T05:17:59;23.70;57.40
24144;DHT22;12307;50.828;6.080;2023-06-14T05:20:25;23.80;57.50
24144;DHT22;12307;50.828;6.080;2023-06-14T05:22:53;23.80;57.50
24144;DHT22;12307;50.828;6.080;2023-06-14T05:25:19;23.80;57.50
24144;DHT22;12307;50.828;6.080;2023-06-14T05:27:45;23.80;57.50
24144;DHT22;12307;50.828;6.080;2023-06-14T05:30:12;23.80;57.50
24144;DHT22;12307;50.828;6.080;2023-06-14T05:32:38;23.80;57.50
24144;DHT22;12307;50.828;6.080;2023-06-14T05:35:07;23.80;57.50
24144;DHT22;12307;50.828;6.080;2023-06-14T05:37:33;23.80;57.50
24144;DHT22;12307;50.828;6.080;2023-06-14T05:40:00;23.80;57.50
24144;DHT22;12307;50.828;6.080;2023-06-14T05:42:26;23.80;57.40
24144;DHT22;12307;50.828;6.080;2023-06-14T05:44:51;23.80;57.40
24144;DHT22;12307;50.828;6.080;2023-06-14T05:47:17;23.80;57.40
24144;DHT22;12307;50.828;6.080;2023-06-14T05:49:43;23.80;57.40
24144;DHT22;12307;50.828;6.080;2023-06-14T05:52:09;23.80;57.40
24144;DHT22;12307;50.828;6.080;2023-06-14T05:54:37;23.80;57.40
24144;DHT22;12307;50.828;6.080;2023-06-14T05:57:04;23.80;57.40
24144;DHT22;12307;50.828;6.080;2023-06-14T05:59:31;23.80;57.30
24144;DHT22;12307;50.828;6.080;2023-06-14T06:01:57;23.80;57.30
24144;DHT22;12307;50.828;6.080;2023-06-14T06:04:23;23.90;57.30
24144;DHT22;12307;50.828;6.080;2023-06-14T06:06:49;23.90;57.30
24144;DHT22;12307;50.828;6.080;2023-06-14T06:09:14;23.90;57.30
24144;DHT22;12307;50.828;6.080;2023-06-14T06:11:43;23.90;57.40
24144;DHT22;12307;50.828;6.080;2023-06-14T06:14:10;23.90;57.30
24144;DHT22;12307;50.828;6.080;2023-06-14T06:16:35;23.90;57.30
24144;DHT22;12307;50.828;6.080;2023-06-14T06:19:01;23.90;57.30
24144;DHT22;12307;50.828;6.080;2023-06-14T06:21:27;24.00;57.30
24144;DHT22;12307;50.828;6.080;2023-06-14T06:23:53;24.00;57.30
24144;DHT22;12307;50.828;6.080;2023-06-14T06:26:22;24.00;57.30
24144;DHT22;12307;50.828;6.080;2023-06-14T06:28:48;24.00;57.30
24144;DHT22;12307;50.828;6.080;2023-06-14T06:31:15;24.00;57.30
24144;DHT22;12307;50.828;6.080;2023-06-14T06:33:40;24.00;57.30
24144;DHT22;12307;50.828;6.080;2023-06-14T06:36:06;24.00;57.20
24144;DHT22;12307;50.828;6.080;2023-06-14T06:38:32;24.00;57.20
24144;DHT22;12307;50.828;6.080;2023-06-14T06:40:57;24.00;57.20
24144;DHT22;12307;50.828;6.080;2023-06-14T06:43:23;24.10;57.10
24144;DHT22;12307;50.828;6.080;2023-06-14T06:45:49;24.00;57.10
24144;DHT22;12307;50.828;6.080;2023-06-14T06:48:16;24.00;57.10
24144;DHT22;12307;50.828;6.080;2023-06-14T06:50:42;24.10;57.10
24144;DHT22;12307;50.828;6.080;2023-06-14T06:53:07;24.10;57.10
24144;DHT22;12307;50.828;6.080;2023-06-14T06:55:33;24.10;57.00
24144;DHT22;12307;50.828;6.080;2023-06-14T06:57:59;24.10;56.90
24144;DHT22;12307;50.828;6.080;2023-06-14T07:00:25;24.10;56.80
24144;DHT22;12307;50.828;6.080;2023-06-14T07:02:51;24.10;56.80
24144;DHT22;12307;50.828;6.080;2023-06-14T07:05:19;24.20;56.80
24144;DHT22;12307;50.828;6.080;2023-06-14T07:07:44;24.20;56.70
24144;DHT22;12307;50.828;6.080;2023-06-14T07:10:11;24.20;56.70
24144;DHT22;12307;50.828;6.080;2023-06-14T07:12:37;24.20;56.70
24144;DHT22;12307;50.828;6.080;2023-06-14T07:15:06;24.20;56.60
24144;DHT22;12307;50.828;6.080;2023-06-14T07:17:32;24.20;56.60
24144;DHT22;12307;50.828;6.080;2023-06-14T07:19:57;24.20;56.50
24144;DHT22;12307;50.828;6.080;2023-06-14T07:22:24;24.30;56.50
24144;DHT22;12307;50.828;6.080;2023-06-14T07:24:51;24.20;56.40
24144;DHT22;12307;50.828;6.080;2023-06-14T07:27:17;24.30;56.40
24144;DHT22;12307;50.828;6.080;2023-06-14T07:29:43;24.30;56.30
24144;DHT22;12307;50.828;6.080;2023-06-14T07:32:09;24.30;56.30
24144;DHT22;12307;50.828;6.080;2023-06-14T07:34:35;24.30;56.30
24144;DHT22;12307;50.828;6.080;2023-06-14T07:37:04;24.30;56.10
24144;DHT22;12307;50.828;6.080;2023-06-14T07:39:32;24.30;56.10
24144;DHT22;12307;50.828;6.080;2023-06-14T07:41:58;24.30;55.90
24144;DHT22;12307;50.828;6.080;2023-06-14T07:44:24;24.40;56.00
24144;DHT22;12307;50.828;6.080;2023-06-14T07:46:50;24.40;55.90
24144;DHT22;12307;50.828;6.080;2023-06-14T07:49:15;24.40;55.80
24144;DHT22;12307;50.828;6.080;2023-06-14T07:51:41;24.40;55.60
24144;DHT22;12307;50.828;6.080;2023-06-14T07:54:08;24.40;55.50
24144;DHT22;12307;50.828;6.080;2023-06-14T07:56:36;24.40;55.30
24144;DHT22;12307;50.828;6.080;2023-06-14T07:59:01;24.50;55.20
24144;DHT22;12307;50.828;6.080;2023-06-14T08:01:27;24.50;55.00
24144;DHT22;12307;50.828;6.080;2023-06-14T08:03:53;24.50;55.00
24144;DHT22;12307;50.828;6.080;2023-06-14T08:06:19;24.50;54.70
24144;DHT22;12307;50.828;6.080;2023-06-14T08:08:47;24.50;54.70
24144;DHT22;12307;50.828;6.080;2023-06-14T08:11:13;24.50;54.60
24144;DHT22;12307;50.828;6.080;2023-06-14T08:13:39;24.50;54.60
24144;DHT22;12307;50.828;6.080;2023-06-14T08:16:05;24.60;54.50
24144;DHT22;12307;50.828;6.080;2023-06-14T08:18:31;24.60;54.30
24144;DHT22;12307;50.828;6.080;2023-06-14T08:20:57;24.70;54.40
24144;DHT22;12307;50.828;6.080;2023-06-14T08:23:23;24.70;54.30
24144;DHT22;12307;50.828;6.080;2023-06-14T08:25:49;24.70;54.30
24144;DHT22;12307;50.828;6.080;2023-06-14T08:28:15;24.80;54.20
24144;DHT22;12307;50.828;6.080;2023-06-14T08:30:43;24.90;54.20
24144;DHT22;12307;50.828;6.080;2023-06-14T08:33:08;25.00;54.10
24144;DHT22;12307;50.828;6.080;2023-06-14T08:35:34;25.10;53.80
24144;DHT22;12307;50.828;6.080;2023-06-14T08:38:02;25.20;53.50
24144;DHT22;12307;50.828;6.080;2023-06-14T08:40:30;25.40;53.20
24144;DHT22;12307;50.828;6.080;2023-06-14T08:42:56;25.50;53.00
24144;DHT22;12307;50.828;6.080;2023-06-14T08:45:22;25.70;52.80
24144;DHT22;12307;50.828;6.080;2023-06-14T08:47:50;25.80;52.60
24144;DHT22;12307;50.828;6.080;2023-06-14T08:50:19;25.90;52.40
24144;DHT22;12307;50.828;6.080;2023-06-14T08:52:45;26.00;52.20
24144;DHT22;12307;50.828;6.080;2023-06-14T08:55:16;26.10;52.00
24144;DHT22;12307;50.828;6.080;2023-06-14T08:57:44;26.20;51.90
24144;DHT22;12307;50.828;6.080;2023-06-14T09:00:11;26.30;51.70
24144;DHT22;12307;50.828;6.080;2023-06-14T09:02:38;26.40;51.60
24144;DHT22;12307;50.828;6.080;2023-06-14T09:05:10;26.50;51.40
24144;DHT22;12307;50.828;6.080;2023-06-14T09:07:36;26.60;51.30
24144;DHT22;12307;50.828;6.080;2023-06-14T09:10:08;26.70;51.20
24144;DHT22;12307;50.828;6.080;2023-06-14T09:12:34;26.80;51.00
24144;DHT22;12307;50.828;6.080;2023-06-14T09:15:00;26.90;50.90
24144;DHT22;12307;50.828;6.080;2023-06-14T09:17:25;26.90;50.80
24144;DHT22;12307;50.828;6.080;2023-06-14T09:19:51;27.00;50.60
24144;DHT22;12307;50.828;6.080;2023-06-14T09:22:21;27.00;50.40
24144;DHT22;12307;50.828;6.080;2023-06-14T09:24:47;27.20;50.40
24144;DHT22;12307;50.828;6.080;2023-06-14T09:27:15;27.20;50.10
24144;DHT22;12307;50.828;6.080;2023-06-14T09:29:41;27.30;49.90
24144;DHT22;12307;50.828;6.080;2023-06-14T09:32:10;27.30;49.60
24144;DHT22;12307;50.828;6.080;2023-06-14T09:34:36;27.40;49.50
24144;DHT22;12307;50.828;6.080;2023-06-14T09:37:05;27.50;49.40
24144;DHT22;12307;50.828;6.080;2023-06-14T09:39:32;27.50;49.20
24144;DHT22;12307;50.828;6.080;2023-06-14T09:41:58;27.60;49.10
24144;DHT22;12307;50.828;6.080;2023-06-14T09:44:25;27.60;49.00
24144;DHT22;12307;50.828;6.080;2023-06-14T09:46:56;27.70;48.90
24144;DHT22;12307;50.828;6.080;2023-06-14T09:49:21;27.70;48.80
24144;DHT22;12307;50.828;6.080;2023-06-14T09:51:50;27.80;48.70
24144;DHT22;12307;50.828;6.080;2023-06-14T09:54:22;27.90;48.50
24144;DHT22;12307;50.828;6.080;2023-06-14T09:56:51;27.90;48.40
24144;DHT22;12307;50.828;6.080;2023-06-14T09:59:19;28.00;48.30
24144;DHT22;12307;50.828;6.080;2023-06-14T10:01:47;28.00;48.10
24144;DHT22;12307;50.828;6.080;2023-06-14T10:04:14;28.10;48.10
24144;DHT22;12307;50.828;6.080;2023-06-14T10:06:43;28.10;48.00
24144;DHT22;12307;50.828;6.080;2023-06-14T10:09:11;28.20;47.80
24144;DHT22;12307;50.828;6.080;2023-06-14T10:11:37;28.20;47.60
24144;DHT22;12307;50.828;6.080;2023-06-14T10:14:12;28.30;47.40
24144;DHT22;12307;50.828;6.080;2023-06-14T10:16:42;28.30;47.70
24144;DHT22;12307;50.828;6.080;2023-06-14T10:19:16;28.40;46.90
24144;DHT22;12307;50.828;6.080;2023-06-14T10:21:49;28.40;46.70
24144;DHT22;12307;50.828;6.080;2023-06-14T10:24:19;28.50;46.60
24144;DHT22;12307;50.828;6.080;2023-06-14T10:26:53;28.50;46.30
24144;DHT22;12307;50.828;6.080;2023-06-14T10:29:20;28.60;46.00
24144;DHT22;12307;50.828;6.080;2023-06-14T10:31:47;28.60;45.80
24144;DHT22;12307;50.828;6.080;2023-06-14T10:34:22;28.70;45.80
24144;DHT22;12307;50.828;6.080;2023-06-14T10:37:04;28.70;45.50
24144;DHT22;12307;50.828;6.080;2023-06-14T10:39:31;28.70;45.40
24144;DHT22;12307;50.828;6.080;2023-06-14T10:41:58;28.80;45.40
24144;DHT22;12307;50.828;6.080;2023-06-14T10:44:44;28.80;45.20
24144;DHT22;12307;50.828;6.080;2023-06-14T10:47:21;28.80;44.90
24144;DHT22;12307;50.828;6.080;2023-06-14T10:49:50;28.80;44.70
24144;DHT22;12307;50.828;6.080;2023-06-14T10:52:20;28.90;44.70
24144;DHT22;12307;50.828;6.080;2023-06-14T10:54:59;28.90;44.60
24144;DHT22;12307;50.828;6.080;2023-06-14T10:57:26;28.90;44.40
24144;DHT22;12307;50.828;6.080;2023-06-14T10:59:53;29.00;44.50
24144;DHT22;12307;50.828;6.080;2023-06-14T11:05:24;29.00;44.30
24144;DHT22;12307;50.828;6.080;2023-06-14T11:08:11;29.00;44.20
24144;DHT22;12307;50.828;6.080;2023-06-14T11:10:41;29.00;44.00
24144;DHT22;12307;50.828;6.080;2023-06-14T11:13:07;29.00;43.70
24144;DHT22;12307;50.828;6.080;2023-06-14T11:15:36;29.10;43.60
24144;DHT22;12307;50.828;6.080;2023-06-14T11:18:02;29.10;43.40
24144;DHT22;12307;50.828;6.080;2023-06-14T11:20:30;29.10;43.90
24144;DHT22;12307;50.828;6.080;2023-06-14T11:22:56;29.20;43.20
24144;DHT22;12307;50.828;6.080;2023-06-14T11:25:22;29.20;43.20
24144;DHT22;12307;50.828;6.080;2023-06-14T11:27:49;29.20;43.00
24144;DHT22;12307;50.828;6.080;2023-06-14T11:30:16;29.20;43.00
24144;DHT22;12307;50.828;6.080;2023-06-14T11:32:46;29.20;42.90
24144;DHT22;12307;50.828;6.080;2023-06-14T11:35:12;29.20;42.90
24144;DHT22;12307;50.828;6.080;2023-06-14T11:37:38;29.20;42.90
24144;DHT22;12307;50.828;6.080;2023-06-14T11:40:05;29.20;42.80
24144;DHT22;12307;50.828;6.080;2023-06-14T11:42:35;29.30;42.80
24144;DHT22;12307;50.828;6.080;2023-06-14T11:45:01;29.20;42.70
24144;DHT22;12307;50.828;6.080;2023-06-14T11:47:31;29.30;42.50
24144;DHT22;12307;50.828;6.080;2023-06-14T11:49:59;29.30;42.40
24144;DHT22;12307;50.828;6.080;2023-06-14T11:52:25;29.30;42.30
24144;DHT22;12307;50.828;6.080;2023-06-14T11:54:51;29.30;42.10
24144;DHT22;12307;50.828;6.080;2023-06-14T11:57:17;29.30;41.90
24144;DHT22;12307;50.828;6.080;2023-06-14T11:59:44;29.30;41.70
24144;DHT22;12307;50.828;6.080;2023-06-14T12:02:14;29.30;41.60
24144;DHT22;12307;50.828;6.080;2023-06-14T12:04:40;29.30;41.50
24144;DHT22;12307;50.828;6.080;2023-06-14T12:07:12;29.30;41.40
24144;DHT22;12307;50.828;6.080;2023-06-14T12:09:40;29.30;41.30
24144;DHT22;12307;50.828;6.080;2023-06-14T12:12:07;29.30;41.30
24144;DHT22;12307;50.828;6.080;2023-06-14T12:14:33;29.30;41.20
24144;DHT22;12307;50.828;6.080;2023-06-14T12:17:04;29.30;41.30
24144;DHT22;12307;50.828;6.080;2023-06-14T12:19:31;29.30;41.50
24144;DHT22;12307;50.828;6.080;2023-06-14T12:21:59;29.30;41.60
24144;DHT22;12307;50.828;6.080;2023-06-14T12:24:29;29.30;41.70
24144;DHT22;12307;50.828;6.080;2023-06-14T12:26:57;29.30;41.80
24144;DHT22;12307;50.828;6.080;2023-06-14T12:29:25;29.30;41.90
24144;DHT22;12307;50.828;6.080;2023-06-14T12:31:51;29.30;41.90
24144;DHT22;12307;50.828;6.080;2023-06-14T12:34:19;29.30;41.90
24144;DHT22;12307;50.828;6.080;2023-06-14T12:36:45;29.20;41.90
24144;DHT22;12307;50.828;6.080;2023-06-14T12:39:12;29.20;42.00
24144;DHT22;12307;50.828;6.080;2023-06-14T12:41:39;29.20;42.10
24144;DHT22;12307;50.828;6.080;2023-06-14T12:44:07;29.20;42.10
24144;DHT22;12307;50.828;6.080;2023-06-14T12:46:33;29.20;42.20
24144;DHT22;12307;50.828;6.080;2023-06-14T12:48:58;29.20;42.30
24144;DHT22;12307;50.828;6.080;2023-06-14T12:51:24;29.20;42.40
24144;DHT22;12307;50.828;6.080;2023-06-14T12:53:50;29.20;42.50
24144;DHT22;12307;50.828;6.080;2023-06-14T12:56:16;29.20;42.60
24144;DHT22;12307;50.828;6.080;2023-06-14T12:58:44;29.10;42.60
24144;DHT22;12307;50.828;6.080;2023-06-14T13:01:09;29.10;42.60
24144;DHT22;12307;50.828;6.080;2023-06-14T13:03:35;29.10;42.60
24144;DHT22;12307;50.828;6.080;2023-06-14T13:06:01;29.10;42.70
24144;DHT22;12307;50.828;6.080;2023-06-14T13:08:28;29.10;42.70
24144;DHT22;12307;50.828;6.080;2023-06-14T13:10:54;29.00;42.80
24144;DHT22;12307;50.828;6.080;2023-06-14T13:13:20;29.00;42.80
24144;DHT22;12307;50.828;6.080;2023-06-14T13:15:47;29.00;42.80
24144;DHT22;12307;50.828;6.080;2023-06-14T13:18:15;29.00;42.90
24144;DHT22;12307;50.828;6.080;2023-06-14T13:20:41;28.90;42.90
24144;DHT22;12307;50.828;6.080;2023-06-14T13:23:07;28.90;42.80
24144;DHT22;12307;50.828;6.080;2023-06-14T13:25:34;28.90;42.90
24144;DHT22;12307;50.828;6.080;2023-06-14T13:28:00;28.90;43.00
24144;DHT22;12307;50.828;6.080;2023-06-14T13:30:26;28.90;42.90
24144;DHT22;12307;50.828;6.080;2023-06-14T13:32:53;28.80;42.80
24144;DHT22;12307;50.828;6.080;2023-06-14T13:35:18;28.80;42.80
24144;DHT22;12307;50.828;6.080;2023-06-14T13:37:44;28.80;42.70
24144;DHT22;12307;50.828;6.080;2023-06-14T13:40:12;28.70;42.60
24144;DHT22;12307;50.828;6.080;2023-06-14T13:42:37;28.70;42.60
24144;DHT22;12307;50.828;6.080;2023-06-14T13:45:04;28.70;42.60
24144;DHT22;12307;50.828;6.080;2023-06-14T13:47:30;28.70;42.60
24144;DHT22;12307;50.828;6.080;2023-06-14T13:49:57;28.60;42.60
24144;DHT22;12307;50.828;6.080;2023-06-14T13:52:23;28.60;42.60
24144;DHT22;12307;50.828;6.080;2023-06-14T13:54:49;28.60;42.60
24144;DHT22;12307;50.828;6.080;2023-06-14T13:57:15;28.60;42.70
24144;DHT22;12307;50.828;6.080;2023-06-14T13:59:41;28.60;42.70
24144;DHT22;12307;50.828;6.080;2023-06-14T14:02:07;28.60;42.80
24144;DHT22;12307;50.828;6.080;2023-06-14T14:04:33;28.50;42.80
24144;DHT22;12307;50.828;6.080;2023-06-14T14:07:01;28.50;42.80
24144;DHT22;12307;50.828;6.080;2023-06-14T14:09:26;28.50;42.80
24144;DHT22;12307;50.828;6.080;2023-06-14T14:11:52;28.50;42.90
24144;DHT22;12307;50.828;6.080;2023-06-14T14:14:18;28.50;42.90
24144;DHT22;12307;50.828;6.080;2023-06-14T14:16:44;28.40;43.00
24144;DHT22;12307;50.828;6.080;2023-06-14T14:19:09;28.40;43.00
24144;DHT22;12307;50.828;6.080;2023-06-14T14:21:35;28.40;43.00
24144;DHT22;12307;50.828;6.080;2023-06-14T14:24:03;28.40;43.10
24144;DHT22;12307;50.828;6.080;2023-06-14T14:26:28;28.40;43.80
24144;DHT22;12307;50.828;6.080;2023-06-14T14:28:54;28.40;43.30
24144;DHT22;12307;50.828;6.080;2023-06-14T14:31:20;28.40;43.30
24144;DHT22;12307;50.828;6.080;2023-06-14T14:33:45;28.30;43.40
24144;DHT22;12307;50.828;6.080;2023-06-14T14:36:11;28.30;43.40
24144;DHT22;12307;50.828;6.080;2023-06-14T14:38:37;28.30;43.50
24144;DHT22;12307;50.828;6.080;2023-06-14T14:41:04;28.30;43.50
24144;DHT22;12307;50.828;6.080;2023-06-14T14:43:29;28.30;43.50
24144;DHT22;12307;50.828;6.080;2023-06-14T14:45:56;28.30;43.60
24144;DHT22;12307;50.828;6.080;2023-06-14T14:48:22;28.30;43.60
24144;DHT22;12307;50.828;6.080;2023-06-14T14:50:47;28.30;43.70
24144;DHT22;12307;50.828;6.080;2023-06-14T14:53:13;28.30;43.80
24144;DHT22;12307;50.828;6.080;2023-06-14T14:55:42;28.20;43.80
24144;DHT22;12307;50.828;6.080;2023-06-14T14:58:09;28.20;43.80
24144;DHT22;12307;50.828;6.080;2023-06-14T15:00:35;28.20;43.90
24144;DHT22;12307;50.828;6.080;2023-06-14T15:03:01;28.20;44.00
24144;DHT22;12307;50.828;6.080;2023-06-14T15:05:26;28.20;44.00
24144;DHT22;12307;50.828;6.080;2023-06-14T15:07:52;28.20;44.10
24144;DHT22;12307;50.828;6.080;2023-06-14T15:10:18;28.20;44.10
24144;DHT22;12307;50.828;6.080;2023-06-14T15:12:45;28.20;44.20
24144;DHT22;12307;50.828;6.080;2023-06-14T15:15:12;28.10;44.10
24144;DHT22;12307;50.828;6.080;2023-06-14T15:17:37;28.10;44.20
24144;DHT22;12307;50.828;6.080;2023-06-14T15:20:04;28.10;44.20
24144;DHT22;12307;50.828;6.080;2023-06-14T15:22:31;28.10;44.20
24144;DHT22;12307;50.828;6.080;2023-06-14T15:24:57;28.10;44.20
24144;DHT22;12307;50.828;6.080;2023-06-14T15:27:22;28.00;44.30
24144;DHT22;12307;50.828;6.080;2023-06-14T15:29:48;28.00;44.30
24144;DHT22;12307;50.828;6.080;2023-06-14T15:32:15;28.00;44.40